PWSweather.com
Personal Weather Stations
Station Observations
WISCHPK61
Green Bay Schmitt Park, Green Bay, WI 54311

Green Bay Schmitt ParkGreen Bay, WI 54311

Lat: 44.514277, Lon: -87.935067

Elevation: 735

Station Type: Acu Rite Pro Weather Center model 02032C

http://greenbayweathercam.com

High Low Average
Temperature 5.1°F-14.9°C -10.8°F-23.8°C -2.7°F-19.3°C
Dew Point 4.9°F-15.1°C -19.6°F-28.7°C -5.3°F-20.7°C
Winds 2.3 mph 3.7 kmh Calm Calm Calm WCalm W
Wind Gusts 3.5 mph5.6 kmh -- --
Humidity 99% 51% 90%
Pressure 29.46 in997.6 mb 29.25 in990.5 mb -
Precipitation 0.00 in0.0 mm - -
Hour Temp Dew Point Humidity Winds Wind Gusts Pressure Precip Precip Rate Daily Precip Total
12:00 AM 4.6°F-15.2°C 4.4°F-15.3°C 99% Calm Calm -- 29.23 in989.8 mb - 0.00 in0.0 mm 0.00 in0.0 mm
01:00 AM 2.3°F-16.5°C 2.1°F-16.6°C 99% 1.2 mph NW1.9 kmh NW 1.2 mph1.9 kmh 29.25 in990.5 mb - 0.00 in0.0 mm 0.00 in0.0 mm
02:00 AM 0.3°F-17.6°C 0.1°F-17.7°C 99% Calm Calm -- 29.27 in991.2 mb - 0.00 in0.0 mm 0.00 in0.0 mm
03:00 AM -1.5°F-18.6°C -6.7°F-21.5°C 78% Calm Calm -- 29.30 in992.2 mb - 0.00 in0.0 mm 0.00 in0.0 mm
04:00 AM -2.9°F-19.4°C -3.1°F-19.5°C 99% Calm Calm -- 29.31 in992.6 mb - 0.00 in0.0 mm 0.00 in0.0 mm
05:00 AM -4.2°F-20.1°C -4.4°F-20.2°C 99% Calm Calm -- 29.32 in992.9 mb - 0.00 in0.0 mm 0.00 in0.0 mm
06:00 AM -5.8°F-21.0°C -6.0°F-21.1°C 99% Calm Calm -- 29.34 in993.6 mb - 0.00 in0.0 mm 0.00 in0.0 mm
07:00 AM -6.7°F-21.5°C -6.9°F-21.6°C 99% 1.2 mph NW1.9 kmh NW 1.2 mph1.9 kmh 29.36 in994.2 mb - 0.00 in0.0 mm 0.00 in0.0 mm
08:00 AM -6.9°F-21.6°C -7.1°F-21.7°C 99% Calm Calm -- 29.37 in994.6 mb - 0.00 in0.0 mm 0.00 in0.0 mm
09:00 AM -6.3°F-21.3°C -6.5°F-21.4°C 99% Calm Calm -- 29.38 in994.9 mb - 0.00 in0.0 mm 0.00 in0.0 mm
10:00 AM -4.4°F-20.2°C -4.6°F-20.3°C 99% 1.2 mph NW1.9 kmh NW -- 29.38 in994.9 mb - 0.00 in0.0 mm 0.00 in0.0 mm
11:00 AM -1.6°F-18.7°C -1.9°F-18.8°C 99% 2.3 mph NW3.7 kmh NW 3.5 mph5.6 kmh 29.39 in995.3 mb - 0.00 in0.0 mm 0.00 in0.0 mm
12:00 PM 0.5°F-17.5°C 0.3°F-17.6°C 99% Calm Calm -- 29.39 in995.3 mb - 0.00 in0.0 mm 0.00 in0.0 mm
01:00 PM 2.5°F-16.4°C -11.5°F-24.2°C 51% Calm Calm -- 29.39 in995.3 mb - 0.00 in0.0 mm 0.00 in0.0 mm
02:00 PM 5.1°F-14.9°C 4.9°F-15.1°C 99% Calm Calm -- 29.36 in994.2 mb - 0.00 in0.0 mm 0.00 in0.0 mm
03:00 PM 4.5°F-15.3°C 4.2°F-15.4°C 99% Calm Calm -- 29.36 in994.2 mb - 0.00 in0.0 mm 0.00 in0.0 mm
04:00 PM 2.3°F-16.5°C 2.1°F-16.6°C 99% Calm Calm -- 29.37 in994.6 mb - 0.00 in0.0 mm 0.00 in0.0 mm
05:00 PM 1.2°F-17.1°C 1.0°F-17.2°C 99% Calm Calm -- 29.38 in994.9 mb - 0.00 in0.0 mm 0.00 in0.0 mm
06:00 PM -0.4°F-18.0°C -7.6°F-22.0°C 71% Calm Calm -- 29.39 in995.3 mb - 0.00 in0.0 mm 0.00 in0.0 mm
07:00 PM -3.5°F-19.7°C -3.7°F-19.8°C 99% Calm Calm -- 29.40 in995.6 mb - 0.00 in0.0 mm 0.00 in0.0 mm
08:00 PM -5.8°F-21.0°C -11.9°F-24.4°C 74% Calm Calm -- 29.43 in996.6 mb - 0.00 in0.0 mm 0.00 in0.0 mm
09:00 PM -5.6°F-20.9°C -16.9°F-27.2°C 57% Calm Calm -- 29.44 in997.0 mb - 0.00 in0.0 mm 0.00 in0.0 mm
10:00 PM -8.0°F-22.2°C -8.2°F-22.3°C 99% Calm Calm -- 29.46 in997.6 mb - 0.00 in0.0 mm 0.00 in0.0 mm
11:00 PM -9.8°F-23.2°C -15.0°F-26.1°C 77% Calm Calm -- 29.46 in997.6 mb - 0.00 in0.0 mm 0.00 in0.0 mm